createdAt,value
2019-05-26T00:00:28.551Z,10.27
2019-05-26T00:02:58.791Z,10.18
2019-05-26T00:05:28.961Z,10.16
2019-05-26T00:07:59.195Z,10.38
2019-05-26T00:10:29.336Z,10.34
2019-05-26T00:12:59.468Z,10.26
2019-05-26T00:15:29.698Z,10.18
2019-05-26T00:17:59.879Z,10.30
2019-05-26T00:20:30.069Z,10.22
2019-05-26T00:23:00.232Z,10.21
2019-05-26T00:25:30.444Z,10.29
2019-05-26T00:28:00.721Z,10.20
2019-05-26T00:30:30.800Z,10.28
2019-05-26T00:33:01.001Z,10.23
2019-05-26T00:35:31.282Z,10.22
2019-05-26T00:38:01.546Z,10.32
2019-05-26T00:40:31.741Z,10.25
2019-05-26T00:43:01.916Z,10.22
2019-05-26T00:45:32.157Z,10.29
2019-05-26T00:48:02.387Z,10.38
2019-05-26T00:50:32.536Z,10.43
2019-05-26T00:53:02.738Z,10.34
2019-05-26T00:55:33.073Z,10.34
2019-05-26T00:58:04.375Z,10.49
2019-05-26T01:00:41.890Z,10.44
2019-05-26T01:03:12.266Z,10.43
2019-05-26T01:05:42.505Z,10.44
2019-05-26T01:08:12.746Z,10.43
2019-05-26T01:10:42.939Z,10.44
2019-05-26T01:13:13.134Z,10.51
2019-05-26T01:15:43.522Z,10.53
2019-05-26T01:18:13.786Z,10.56
2019-05-26T01:20:44.009Z,10.49
2019-05-26T01:23:14.184Z,10.46
2019-05-26T01:25:44.727Z,10.42
2019-05-26T01:28:15.000Z,10.44
2019-05-26T01:30:45.428Z,10.47
2019-05-26T01:33:15.661Z,10.45
2019-05-26T01:35:46.854Z,10.50
2019-05-26T01:38:24.101Z,10.51
2019-05-26T01:40:51.964Z,10.55
2019-05-26T01:43:22.173Z,10.70
2019-05-26T01:45:52.301Z,10.83
2019-05-26T01:48:22.501Z,10.84
2019-05-26T01:50:52.724Z,10.87
2019-05-26T01:53:23.004Z,10.82
2019-05-26T01:55:53.232Z,10.98
2019-05-26T01:58:23.471Z,10.97
2019-05-26T02:00:55.767Z,10.97
2019-05-26T02:03:27.009Z,11.04
2019-05-26T02:05:57.298Z,11.07
2019-05-26T02:08:38.844Z,11.10
2019-05-26T02:10:59.502Z,11.20
2019-05-26T02:13:29.653Z,11.22
2019-05-26T02:15:59.909Z,11.31
2019-05-26T02:18:31.728Z,11.37
2019-05-26T02:21:01.851Z,11.44
2019-05-26T02:23:32.053Z,11.50
2019-05-26T02:26:02.226Z,11.66
2019-05-26T02:28:32.557Z,11.75
2019-05-26T02:31:02.762Z,11.80
2019-05-26T02:33:32.978Z,11.89
2019-05-26T02:36:03.130Z,12.00
2019-05-26T02:38:35.782Z,12.09
2019-05-26T02:41:06.256Z,12.17
2019-05-26T02:43:36.405Z,12.31
2019-05-26T02:46:06.720Z,12.34
2019-05-26T02:48:36.908Z,12.37
2019-05-26T02:51:08.064Z,12.52
2019-05-26T02:53:39.826Z,12.58
2019-05-26T02:56:10.032Z,12.61
2019-05-26T02:58:40.855Z,12.70
2019-05-26T03:01:11.081Z,12.71
2019-05-26T03:03:41.291Z,12.80
2019-05-26T03:06:13.049Z,12.83
2019-05-26T03:08:44.851Z,12.89
2019-05-26T03:11:16.345Z,13.02
2019-05-26T03:13:48.681Z,13.04
2019-05-26T03:16:21.229Z,13.06
2019-05-26T03:18:53.150Z,13.12
2019-05-26T03:21:25.073Z,13.15
2019-05-26T03:23:55.236Z,13.16
2019-05-26T03:26:28.391Z,13.20
2019-05-26T03:28:58.531Z,13.23
2019-05-26T03:31:28.736Z,13.21
2019-05-26T03:33:58.875Z,13.26
2019-05-26T03:36:29.046Z,13.30
2019-05-26T03:38:59.304Z,13.30
2019-05-26T03:41:29.522Z,13.32
2019-05-26T03:43:59.813Z,13.36
2019-05-26T03:46:30.014Z,13.38
2019-05-26T03:49:00.210Z,13.38
2019-05-26T03:51:30.364Z,13.38
2019-05-26T03:54:00.533Z,13.39
2019-05-26T03:56:30.904Z,13.42
2019-05-26T03:59:01.120Z,13.46
2019-05-26T04:01:31.314Z,13.44
2019-05-26T04:04:01.503Z,13.45
2019-05-26T04:06:31.672Z,13.44
2019-05-26T04:09:01.832Z,13.44
2019-05-26T04:11:33.231Z,13.43
2019-05-26T04:14:03.304Z,13.40
2019-05-26T04:16:33.427Z,13.39
2019-05-26T04:19:04.422Z,13.41
2019-05-26T04:21:34.540Z,13.39
2019-05-26T04:24:04.676Z,13.42
2019-05-26T04:26:34.883Z,13.47
2019-05-26T04:29:05.158Z,13.46
2019-05-26T04:31:35.312Z,13.51
2019-05-26T04:34:05.576Z,13.55
2019-05-26T04:36:36.680Z,13.57
2019-05-26T04:39:07.761Z,13.57
2019-05-26T04:41:38.047Z,13.56
2019-05-26T04:44:10.573Z,13.57
2019-05-26T04:46:40.833Z,13.57
2019-05-26T04:49:11.017Z,13.57
2019-05-26T04:51:41.177Z,13.57
2019-05-26T04:54:11.378Z,13.60
2019-05-26T04:56:41.573Z,13.59
2019-05-26T04:59:11.792Z,13.63
2019-05-26T05:01:41.976Z,13.65
2019-05-26T05:04:12.154Z,13.70
2019-05-26T05:06:42.410Z,13.74
2019-05-26T05:09:12.540Z,13.79
2019-05-26T05:11:42.785Z,13.87
2019-05-26T05:14:12.945Z,13.89
2019-05-26T05:16:43.183Z,13.97
2019-05-26T05:19:13.432Z,14.01
2019-05-26T05:21:43.610Z,14.07
2019-05-26T05:24:13.807Z,14.06
2019-05-26T05:26:43.946Z,14.12
2019-05-26T05:29:14.144Z,14.12
2019-05-26T05:31:44.365Z,14.13
2019-05-26T05:34:14.541Z,14.20
2019-05-26T05:36:44.719Z,14.33
2019-05-26T05:39:14.824Z,14.45
2019-05-26T05:41:45.086Z,14.60
2019-05-26T05:44:15.240Z,14.61
2019-05-26T05:46:45.382Z,14.66
2019-05-26T05:49:15.513Z,14.72
2019-05-26T05:51:45.742Z,14.78
2019-05-26T05:54:15.877Z,14.94
2019-05-26T05:56:46.114Z,14.92
2019-05-26T05:59:16.327Z,15.06
2019-05-26T06:01:46.596Z,15.17
2019-05-26T06:04:16.926Z,15.04
2019-05-26T06:06:47.305Z,15.02
2019-05-26T06:09:17.586Z,15.06
2019-05-26T06:11:47.841Z,15.18
2019-05-26T06:14:18.049Z,15.11
2019-05-26T06:16:48.193Z,14.96
2019-05-26T06:19:18.594Z,14.97
2019-05-26T06:21:48.804Z,15.19
2019-05-26T06:24:19.106Z,15.04
2019-05-26T06:26:49.381Z,15.11
2019-05-26T06:29:19.774Z,15.12
2019-05-26T06:31:50.329Z,15.27
2019-05-26T06:34:20.602Z,15.32
2019-05-26T06:36:52.385Z,15.40
2019-05-26T06:39:22.504Z,15.24
2019-05-26T06:41:54.372Z,15.23
2019-05-26T06:44:24.595Z,15.39
2019-05-26T06:47:25.441Z,15.41
2019-05-26T06:50:51.239Z,15.41
2019-05-26T06:53:44.265Z,15.57
2019-05-26T06:56:14.528Z,15.61
2019-05-26T06:58:44.744Z,15.68
2019-05-26T07:01:15.932Z,15.75
2019-05-26T07:03:48.133Z,15.76
2019-05-26T07:06:18.370Z,15.72
2019-05-26T07:08:48.526Z,15.86
2019-05-26T07:11:19.357Z,15.84
2019-05-26T07:13:49.602Z,16.02
2019-05-26T07:16:36.506Z,15.88
2019-05-26T07:18:51.645Z,15.86
2019-05-26T07:21:23.477Z,15.78
2019-05-26T07:23:57.766Z,15.87
2019-05-26T07:26:31.070Z,16.12
2019-05-26T07:29:01.248Z,16.07
2019-05-26T07:31:32.343Z,15.91
2019-05-26T07:34:02.678Z,16.06
2019-05-26T07:36:32.921Z,16.28
2019-05-26T07:39:03.113Z,16.08
2019-05-26T07:41:36.471Z,16.29
2019-05-26T07:44:06.689Z,16.03
2019-05-26T07:47:16.874Z,16.24
2019-05-26T07:49:54.971Z,16.40
2019-05-26T07:52:25.190Z,16.40
2019-05-26T07:54:55.503Z,16.41
2019-05-26T07:57:25.688Z,16.88
2019-05-26T07:59:57.641Z,16.59
2019-05-26T08:02:31.438Z,16.66
2019-05-26T08:05:01.622Z,17.12
2019-05-26T08:07:32.039Z,17.05
2019-05-26T08:10:02.320Z,17.36
2019-05-26T08:12:33.632Z,17.27
2019-05-26T08:15:03.772Z,17.19
2019-05-26T08:17:34.119Z,17.55
2019-05-26T08:20:04.967Z,17.41
2019-05-26T08:22:35.304Z,17.62
2019-05-26T08:25:05.817Z,17.78
2019-05-26T08:27:36.083Z,17.57
2019-05-26T08:30:07.667Z,17.76
2019-05-26T08:32:40.646Z,17.91
2019-05-26T08:35:16.239Z,17.99
2019-05-26T08:37:53.881Z,17.75
2019-05-26T08:40:24.353Z,17.82
2019-05-26T08:46:33.662Z,17.48
2019-05-26T08:49:03.897Z,17.71
2019-05-26T08:51:35.694Z,17.97
2019-05-26T08:54:06.059Z,17.95
2019-05-26T08:56:36.258Z,18.16
2019-05-26T08:59:06.606Z,18.24
2019-05-26T09:01:38.034Z,18.31
2019-05-26T09:04:08.251Z,18.59
2019-05-26T09:06:38.495Z,18.50
2019-05-26T09:09:08.672Z,18.51
2019-05-26T09:11:38.951Z,18.59
2019-05-26T09:14:09.266Z,18.66
2019-05-26T09:16:41.162Z,18.56
2019-05-26T09:19:12.591Z,18.86
2019-05-26T09:21:42.859Z,19.08
2019-05-26T09:24:13.057Z,18.54
2019-05-26T09:26:46.481Z,19.09
2019-05-26T09:29:16.649Z,18.86
2019-05-26T09:31:46.919Z,18.90
2019-05-26T09:34:17.273Z,18.84
2019-05-26T09:36:47.619Z,18.90
2019-05-26T09:39:17.728Z,18.77
2019-05-26T09:41:48.535Z,18.94
2019-05-26T09:44:18.749Z,18.88
2019-05-26T09:46:48.987Z,18.85
2019-05-26T09:49:19.163Z,18.46
2019-05-26T09:51:50.471Z,18.20
2019-05-26T09:54:20.696Z,18.41
2019-05-26T09:56:50.889Z,18.45
2019-05-26T09:59:21.074Z,18.17
2019-05-26T10:01:53.019Z,18.24
2019-05-26T10:04:24.810Z,17.91
2019-05-26T10:06:54.962Z,18.08
2019-05-26T10:09:25.231Z,18.17
2019-05-26T10:11:55.496Z,18.26
2019-05-26T10:14:25.811Z,17.98
2019-05-26T10:16:56.024Z,18.28
2019-05-26T10:19:27.422Z,18.39
2019-05-26T10:21:58.684Z,18.69
2019-05-26T10:24:28.919Z,18.72
2019-05-26T10:26:59.228Z,18.69
2019-05-26T10:29:29.500Z,18.38
2019-05-26T10:32:00.070Z,18.89
2019-05-26T10:34:30.275Z,18.56
2019-05-26T10:37:00.465Z,18.53
2019-05-26T10:39:30.688Z,18.54
2019-05-26T10:42:04.235Z,18.84
2019-05-26T10:44:34.164Z,19.11
2019-05-26T10:47:04.366Z,19.43
2019-05-26T10:49:34.589Z,19.18
2019-05-26T10:52:04.834Z,19.31
2019-05-26T10:54:35.147Z,19.60
2019-05-26T10:57:05.489Z,19.44
2019-05-26T10:59:36.810Z,19.51
2019-05-26T11:02:07.248Z,19.98
2019-05-26T11:04:38.281Z,19.82
2019-05-26T11:07:08.569Z,19.76
2019-05-26T11:09:38.770Z,19.95
2019-05-26T11:12:16.787Z,19.65
2019-05-26T11:14:46.980Z,19.69
2019-05-26T11:17:17.199Z,19.52
2019-05-26T11:20:03.566Z,19.26
2019-05-26T11:22:35.267Z,19.31
2019-05-26T11:25:06.277Z,19.08
2019-05-26T11:27:36.496Z,19.01
2019-05-26T11:30:08.571Z,19.19
2019-05-26T11:32:38.788Z,18.71
2019-05-26T11:35:10.076Z,18.99
2019-05-26T11:37:41.210Z,19.04
2019-05-26T11:40:14.962Z,18.78
2019-05-26T11:42:45.398Z,19.04
2019-05-26T11:45:17.535Z,18.82
2019-05-26T11:47:47.842Z,18.58
2019-05-26T11:50:18.427Z,18.88
2019-05-26T11:52:50.410Z,18.91
2019-05-26T11:55:20.849Z,18.68
2019-05-26T11:57:55.517Z,18.86
2019-05-26T12:00:28.284Z,18.92
2019-05-26T12:03:00.452Z,19.06
2019-05-26T12:05:30.375Z,19.14
2019-05-26T12:08:00.526Z,19.15
2019-05-26T12:10:30.768Z,19.43
2019-05-26T12:13:01.043Z,19.30
2019-05-26T12:15:31.500Z,19.29
2019-05-26T12:18:03.564Z,19.09
2019-05-26T12:20:33.766Z,19.00
2019-05-26T12:23:03.987Z,19.36
2019-05-26T12:25:34.170Z,19.10
2019-05-26T12:28:04.409Z,19.24
2019-05-26T12:30:34.992Z,19.38
2019-05-26T12:33:05.228Z,19.22
2019-05-26T12:35:44.350Z,19.19
2019-05-26T12:38:15.142Z,18.97
2019-05-26T12:40:45.579Z,18.99
2019-05-26T12:43:17.620Z,18.86
2019-05-26T12:45:48.098Z,19.07
2019-05-26T12:48:18.347Z,18.62
2019-05-26T12:50:48.594Z,18.72
2019-05-26T12:53:18.836Z,18.90
2019-05-26T12:55:49.123Z,18.55
2019-05-26T12:58:19.304Z,18.67
2019-05-26T13:00:53.864Z,18.19
2019-05-26T13:03:21.403Z,18.09
2019-05-26T13:05:51.609Z,17.74
2019-05-26T13:08:21.760Z,17.78
2019-05-26T13:10:51.895Z,17.92
2019-05-26T13:13:22.050Z,17.83
2019-05-26T13:15:52.264Z,17.97
2019-05-26T13:18:22.454Z,18.19
2019-05-26T13:20:52.654Z,18.46
2019-05-26T13:23:22.839Z,18.49
2019-05-26T13:25:52.978Z,18.34
2019-05-26T13:28:23.146Z,18.26
2019-05-26T13:30:53.298Z,18.21
2019-05-26T13:33:23.454Z,17.94
2019-05-26T13:35:53.594Z,17.97
2019-05-26T13:38:25.364Z,17.97
2019-05-26T13:40:55.504Z,17.81
2019-05-26T13:43:25.756Z,17.72
2019-05-26T13:45:56.000Z,17.61
2019-05-26T13:48:26.178Z,17.56
2019-05-26T13:50:56.423Z,17.71
2019-05-26T13:53:26.693Z,17.52
2019-05-26T13:55:56.850Z,17.55
2019-05-26T13:58:32.625Z,17.51
2019-05-26T14:01:04.463Z,17.78
2019-05-26T14:03:37.604Z,17.66
2019-05-26T14:07:26.188Z,17.50
2019-05-26T14:09:49.575Z,17.37
2019-05-26T14:12:46.322Z,17.44
2019-05-26T14:15:34.922Z,17.24
2019-05-26T14:18:23.570Z,17.33
2019-05-26T14:21:12.401Z,17.42
2019-05-26T14:23:50.483Z,17.40
2019-05-26T14:26:42.571Z,17.23
2019-05-26T14:29:31.357Z,17.36
2019-05-26T14:33:03.785Z,17.09
2019-05-26T14:35:46.119Z,17.28
2019-05-26T14:38:58.370Z,17.15
2019-05-26T14:41:50.575Z,17.08
2019-05-26T14:44:38.587Z,17.00
2019-05-26T14:47:44.742Z,17.11
2019-05-26T14:51:04.567Z,17.16
2019-05-26T14:54:00.884Z,17.13
2019-05-26T14:56:42.228Z,16.96
2019-05-26T14:59:20.767Z,16.94
2019-05-26T15:02:08.899Z,17.21
2019-05-26T15:05:05.638Z,16.85
2019-05-26T15:08:12.487Z,16.97
2019-05-26T15:14:46.527Z,17.02
2019-05-26T15:17:38.620Z,17.02
2019-05-26T15:20:26.698Z,16.81
2019-05-26T15:23:27.947Z,16.63
2019-05-26T15:26:30.945Z,16.64
2019-05-26T15:29:42.987Z,16.46
2019-05-26T15:32:54.697Z,16.42
2019-05-26T15:35:45.030Z,16.45
2019-05-26T15:39:18.035Z,16.44
2019-05-26T15:42:22.259Z,16.29
2019-05-26T15:49:21.699Z,16.16
2019-05-26T15:52:32.803Z,16.00
2019-05-26T15:59:24.766Z,15.74
2019-05-26T16:05:28.283Z,15.83
2019-05-26T16:08:00.070Z,15.72
2019-05-26T16:13:58.425Z,15.64
2019-05-26T16:16:41.367Z,15.54
2019-05-26T16:19:23.049Z,15.69
2019-05-26T16:21:59.102Z,15.59
2019-05-26T16:24:32.804Z,15.75
2019-05-26T16:27:18.758Z,15.75
2019-05-26T16:29:37.829Z,15.70
2019-05-26T16:32:08.049Z,15.40
2019-05-26T16:34:42.161Z,15.29
2019-05-26T16:37:14.566Z,15.41
2019-05-26T16:39:46.116Z,15.44
2019-05-26T16:42:21.925Z,15.19
2019-05-26T16:44:52.152Z,14.99
2019-05-26T16:47:22.355Z,15.01
2019-05-26T16:49:52.611Z,14.97
2019-05-26T16:52:29.346Z,14.87
2019-05-26T16:54:59.336Z,14.83
2019-05-26T16:57:31.429Z,14.79
2019-05-26T17:00:08.024Z,14.69
2019-05-26T17:02:41.272Z,14.63
2019-05-26T17:05:11.678Z,14.43
2019-05-26T17:07:41.943Z,14.33
2019-05-26T17:10:16.216Z,14.27
2019-05-26T17:12:46.420Z,14.23
2019-05-26T17:15:16.998Z,14.13
2019-05-26T17:17:47.266Z,14.16
2019-05-26T17:20:18.327Z,14.06
2019-05-26T17:22:49.060Z,13.86
2019-05-26T17:25:19.264Z,13.89
2019-05-26T17:27:50.548Z,13.72
2019-05-26T17:30:22.242Z,13.74
2019-05-26T17:32:56.097Z,13.89
2019-05-26T17:35:26.333Z,13.83
2019-05-26T17:37:58.210Z,13.79
2019-05-26T17:40:33.908Z,13.64
2019-05-26T17:43:04.317Z,13.57
2019-05-26T17:45:34.550Z,13.62
2019-05-26T17:48:06.439Z,13.43
2019-05-26T17:50:39.141Z,13.34
2019-05-26T17:53:09.402Z,13.25
2019-05-26T17:55:40.580Z,13.13
2019-05-26T17:58:34.461Z,13.22
2019-05-26T18:01:17.265Z,13.16
2019-05-26T18:03:47.674Z,13.28
2019-05-26T18:06:19.828Z,13.25
2019-05-26T18:08:50.005Z,13.27
2019-05-26T18:11:22.871Z,13.18
2019-05-26T18:13:54.350Z,13.19
2019-05-26T18:16:26.497Z,13.26
2019-05-26T18:18:59.517Z,13.21
2019-05-26T18:21:29.672Z,13.23
2019-05-26T18:24:00.796Z,13.14
2019-05-26T18:26:31.006Z,13.22
2019-05-26T18:29:01.246Z,13.16
2019-05-26T18:31:31.397Z,13.08
2019-05-26T18:34:10.834Z,13.16
2019-05-26T18:36:42.575Z,13.13
2019-05-26T18:39:14.975Z,13.16
2019-05-26T18:41:45.208Z,13.16
2019-05-26T18:44:18.287Z,13.12
2019-05-26T18:46:53.353Z,13.06
2019-05-26T18:49:26.304Z,13.04
2019-05-26T18:51:58.192Z,13.02
2019-05-26T18:54:28.384Z,13.02
2019-05-26T18:56:58.551Z,13.00
2019-05-26T18:59:30.188Z,13.00
2019-05-26T19:02:02.527Z,12.97
2019-05-26T19:04:34.317Z,12.98
2019-05-26T19:07:05.659Z,12.92
2019-05-26T19:09:41.076Z,13.00
2019-05-26T19:12:30.442Z,13.01
2019-05-26T19:15:24.851Z,12.96
2019-05-26T19:18:20.292Z,13.01
2019-05-26T19:20:54.285Z,13.01
2019-05-26T19:24:22.302Z,13.03
2019-05-26T19:26:34.666Z,13.01
2019-05-26T19:30:28.571Z,13.05
2019-05-26T19:36:40.195Z,13.11
2019-05-26T19:39:34.957Z,13.15
2019-05-26T19:42:12.578Z,13.17
2019-05-26T19:44:55.799Z,13.26
2019-05-26T19:47:43.112Z,13.35
2019-05-26T19:50:35.109Z,13.30
2019-05-26T19:53:32.455Z,13.21
2019-05-26T19:56:03.161Z,13.18
2019-05-26T19:58:33.464Z,13.25
2019-05-26T20:01:05.593Z,13.27
2019-05-26T20:03:35.787Z,13.27
2019-05-26T20:06:06.313Z,13.33
2019-05-26T20:08:36.614Z,13.29
2019-05-26T20:11:08.703Z,13.35
2019-05-26T20:13:39.051Z,13.32
2019-05-26T20:16:09.270Z,13.29
2019-05-26T20:18:39.494Z,13.29
2019-05-26T20:21:09.664Z,13.32
2019-05-26T20:23:40.042Z,13.38
2019-05-26T20:26:10.258Z,13.39
2019-05-26T20:28:40.494Z,13.38
2019-05-26T20:31:10.726Z,13.35
2019-05-26T20:33:40.918Z,13.34
2019-05-26T20:36:11.155Z,13.35
2019-05-26T20:38:41.377Z,13.29
2019-05-26T20:41:11.642Z,13.33
2019-05-26T20:43:44.580Z,13.36
2019-05-26T20:46:14.786Z,13.36
2019-05-26T20:48:45.069Z,13.38
2019-05-26T20:51:17.261Z,13.36
2019-05-26T20:53:47.351Z,13.36
2019-05-26T20:56:17.526Z,13.40
2019-05-26T20:58:47.950Z,13.41
2019-05-26T21:01:18.146Z,13.40
2019-05-26T21:03:48.409Z,13.40
2019-05-26T21:06:18.658Z,13.39
2019-05-26T21:08:48.838Z,13.40
2019-05-26T21:11:21.540Z,13.40
2019-05-26T21:13:51.730Z,13.44
2019-05-26T21:16:21.929Z,13.40
2019-05-26T21:18:52.907Z,13.43
2019-05-26T21:21:23.072Z,13.44
2019-05-26T21:23:53.231Z,13.44
2019-05-26T21:26:23.369Z,13.46
2019-05-26T21:28:53.679Z,13.45
2019-05-26T21:31:23.889Z,13.47
2019-05-26T21:33:54.277Z,13.45
2019-05-26T21:36:25.473Z,13.47
2019-05-26T21:38:55.699Z,13.46
2019-05-26T21:41:32.745Z,13.44
2019-05-26T21:44:06.410Z,13.47
2019-05-26T21:46:36.612Z,13.43
2019-05-26T21:49:12.143Z,13.46
2019-05-26T21:51:46.104Z,13.45
2019-05-26T21:54:16.395Z,13.43
2019-05-26T21:56:46.704Z,13.42
2019-05-26T21:59:19.438Z,13.40
2019-05-26T22:01:52.293Z,13.42
2019-05-26T22:04:28.518Z,13.47
2019-05-26T22:06:59.091Z,13.41
2019-05-26T22:09:32.796Z,13.41
2019-05-26T22:12:02.991Z,13.41
2019-05-26T22:14:37.270Z,13.38
2019-05-26T22:17:10.545Z,13.37
2019-05-26T22:19:46.591Z,13.40
2019-05-26T22:22:17.607Z,13.39
2019-05-26T22:24:50.302Z,13.33
2019-05-26T22:27:23.649Z,13.34
2019-05-26T22:29:58.316Z,13.38
2019-05-26T22:32:32.577Z,13.36
2019-05-26T22:35:13.954Z,13.27
2019-05-26T22:37:45.816Z,13.30
2019-05-26T22:40:19.469Z,13.27
2019-05-26T22:42:52.559Z,13.20
2019-05-26T22:45:23.009Z,13.17
2019-05-26T22:47:56.324Z,13.18
2019-05-26T22:50:31.960Z,13.20
2019-05-26T22:53:03.920Z,13.18
2019-05-26T22:55:34.068Z,13.18
2019-05-26T22:58:04.249Z,13.16
2019-05-26T23:00:34.387Z,13.10
2019-05-26T23:03:04.582Z,13.14
2019-05-26T23:05:34.767Z,13.09
2019-05-26T23:08:05.098Z,13.11
2019-05-26T23:10:35.251Z,13.10
2019-05-26T23:13:05.425Z,13.16
2019-05-26T23:15:35.706Z,13.07
2019-05-26T23:18:06.655Z,13.04
2019-05-26T23:20:36.839Z,13.02
2019-05-26T23:23:07.062Z,12.96
2019-05-26T23:25:37.301Z,13.04
2019-05-26T23:28:07.510Z,12.98
2019-05-26T23:30:38.788Z,12.95
2019-05-26T23:33:09.175Z,12.87
2019-05-26T23:35:39.393Z,12.93
2019-05-26T23:38:09.567Z,12.84
2019-05-26T23:40:39.947Z,12.82
2019-05-26T23:43:10.098Z,12.73
2019-05-26T23:45:40.282Z,12.71
2019-05-26T23:48:10.532Z,12.66
2019-05-26T23:50:41.073Z,12.75
2019-05-26T23:53:11.280Z,12.55
2019-05-26T23:55:41.439Z,12.59
2019-05-26T23:58:11.627Z,12.48
